createdAt,value
2022-10-17T00:00:04.623Z,19.25
2022-10-17T00:00:16.323Z,19.24
2022-10-17T00:00:27.055Z,19.24
2022-10-17T00:00:37.799Z,19.25
2022-10-17T00:00:48.563Z,19.24
2022-10-17T00:00:59.350Z,19.24
2022-10-17T00:01:10.208Z,19.24
2022-10-17T00:01:23.484Z,19.24
2022-10-17T00:01:36.263Z,19.24
2022-10-17T00:01:47.122Z,19.25
2022-10-17T00:01:57.864Z,19.25
2022-10-17T00:02:10.344Z,19.24
2022-10-17T00:02:21.095Z,19.24
2022-10-17T00:02:31.847Z,19.24
2022-10-17T00:02:42.663Z,19.25
2022-10-17T00:02:54.915Z,19.24
2022-10-17T00:03:07.895Z,19.24
2022-10-17T00:03:22.615Z,19.25
2022-10-17T00:03:33.344Z,19.25
2022-10-17T00:03:44.085Z,19.24
2022-10-17T00:03:54.814Z,19.24
2022-10-17T00:04:05.537Z,19.24
2022-10-17T00:04:16.288Z,19.24
2022-10-17T00:04:27.084Z,19.24
2022-10-17T00:04:37.828Z,19.24
2022-10-17T00:04:48.622Z,19.24
2022-10-17T00:05:01.063Z,19.24
2022-10-17T00:05:11.846Z,19.24
2022-10-17T00:05:22.624Z,19.24
2022-10-17T00:05:33.415Z,19.23
2022-10-17T00:05:44.175Z,19.24
2022-10-17T00:05:54.947Z,19.23
2022-10-17T00:06:07.683Z,19.24
2022-10-17T00:06:18.463Z,19.24
2022-10-17T00:06:29.216Z,19.24
2022-10-17T00:06:39.995Z,19.23
2022-10-17T00:06:50.727Z,19.24
2022-10-17T00:07:01.507Z,19.24
2022-10-17T00:07:12.339Z,19.24
2022-10-17T00:07:23.078Z,19.24
2022-10-17T00:07:33.815Z,19.24
2022-10-17T00:07:44.597Z,19.23
2022-10-17T00:07:55.366Z,19.24
2022-10-17T00:08:07.106Z,19.23
2022-10-17T00:08:17.876Z,19.24
2022-10-17T00:08:29.646Z,19.23
2022-10-17T00:08:40.438Z,19.24
2022-10-17T00:08:51.188Z,19.24
2022-10-17T00:09:03.676Z,19.21
2022-10-17T00:09:15.637Z,19.23
2022-10-17T00:09:26.377Z,19.23
2022-10-17T00:09:38.791Z,19.21
2022-10-17T00:09:49.535Z,19.23
2022-10-17T00:10:00.277Z,19.23
2022-10-17T00:10:12.776Z,19.23
2022-10-17T00:10:23.548Z,19.21
2022-10-17T00:10:34.359Z,19.23
2022-10-17T00:10:45.136Z,19.21
2022-10-17T00:10:55.891Z,19.23
2022-10-17T00:11:08.328Z,19.23
2022-10-17T00:11:19.057Z,19.21
2022-10-17T00:11:31.498Z,19.23
2022-10-17T00:11:42.232Z,19.23
2022-10-17T00:11:52.967Z,19.23
2022-10-17T00:12:03.698Z,19.21
2022-10-17T00:12:15.938Z,19.21
2022-10-17T00:12:28.393Z,19.23
2022-10-17T00:12:40.844Z,19.23
2022-10-17T00:12:52.802Z,19.21
2022-10-17T00:13:04.539Z,19.23
2022-10-17T00:13:16.297Z,19.21
2022-10-17T00:13:29.285Z,19.23
2022-10-17T00:13:42.018Z,19.23
2022-10-17T00:13:52.769Z,19.21
2022-10-17T00:14:03.539Z,19.21
2022-10-17T00:14:15.288Z,19.23
2022-10-17T00:14:26.054Z,19.21
2022-10-17T00:14:36.788Z,19.21
2022-10-17T00:14:47.532Z,19.21
2022-10-17T00:14:58.279Z,19.21
2022-10-17T00:15:09.011Z,19.21
2022-10-17T00:15:19.765Z,19.21
2022-10-17T00:15:30.489Z,19.21
2022-10-17T00:15:41.233Z,19.21
2022-10-17T00:15:51.969Z,19.21
2022-10-17T00:16:02.748Z,19.21
2022-10-17T00:16:14.479Z,19.21
2022-10-17T00:16:26.760Z,19.20
2022-10-17T00:16:39.200Z,19.21
2022-10-17T00:16:49.921Z,19.20
2022-10-17T00:17:00.760Z,19.20
2022-10-17T00:17:11.510Z,19.20
2022-10-17T00:17:22.247Z,19.20
2022-10-17T00:17:32.970Z,19.20
2022-10-17T00:17:43.700Z,19.20
2022-10-17T00:17:54.432Z,19.21
2022-10-17T00:18:05.174Z,19.20
2022-10-17T00:18:15.944Z,19.21
2022-10-17T00:18:26.744Z,19.20
2022-10-17T00:18:37.535Z,19.20
2022-10-17T00:18:49.992Z,19.20
2022-10-17T00:19:00.761Z,19.20
2022-10-17T00:19:12.451Z,19.20
2022-10-17T00:19:25.568Z,19.21
2022-10-17T00:19:38.316Z,19.18
2022-10-17T00:19:49.041Z,19.18
2022-10-17T00:19:59.791Z,19.20
2022-10-17T00:20:10.524Z,19.20
2022-10-17T00:20:21.265Z,19.20
2022-10-17T00:20:33.485Z,19.20
2022-10-17T00:20:44.243Z,19.20
2022-10-17T00:20:56.953Z,19.20
2022-10-17T00:21:07.692Z,19.20
2022-10-17T00:21:18.435Z,19.18
2022-10-17T00:21:30.134Z,19.20
2022-10-17T00:21:40.853Z,19.20
2022-10-17T00:21:51.624Z,19.20
2022-10-17T00:22:02.371Z,19.20
2022-10-17T00:22:13.103Z,19.18
2022-10-17T00:22:23.863Z,19.20
2022-10-17T00:22:48.677Z,19.20
2022-10-17T00:23:01.158Z,19.18
2022-10-17T00:23:11.884Z,19.18
2022-10-17T00:23:23.612Z,19.18
2022-10-17T00:23:35.835Z,19.18
2022-10-17T00:23:49.059Z,19.18
2022-10-17T00:24:01.489Z,19.18
2022-10-17T00:24:12.267Z,19.20
2022-10-17T00:24:22.994Z,19.20
2022-10-17T00:24:33.773Z,19.18
2022-10-17T00:24:44.502Z,19.18
2022-10-17T00:24:55.224Z,19.18
2022-10-17T00:25:05.996Z,19.18
2022-10-17T00:25:16.733Z,19.18
2022-10-17T00:25:27.496Z,19.17
2022-10-17T00:25:38.235Z,19.20
2022-10-17T00:25:48.977Z,19.18
2022-10-17T00:25:59.722Z,19.18
2022-10-17T00:26:10.446Z,19.20
2022-10-17T00:26:21.188Z,19.18
2022-10-17T00:26:31.915Z,19.18
2022-10-17T00:26:46.090Z,19.18
2022-10-17T00:27:00.244Z,19.18
2022-10-17T00:27:10.977Z,19.18
2022-10-17T00:27:23.427Z,19.17
2022-10-17T00:27:34.168Z,19.18
2022-10-17T00:27:44.896Z,19.17
2022-10-17T00:27:55.627Z,19.18
2022-10-17T00:28:06.357Z,19.18
2022-10-17T00:28:17.236Z,19.17
2022-10-17T00:28:28.972Z,19.18
2022-10-17T00:28:41.554Z,19.17
2022-10-17T00:28:53.376Z,19.17
2022-10-17T00:29:05.230Z,19.17
2022-10-17T00:29:19.900Z,19.17
2022-10-17T00:29:30.627Z,19.20
2022-10-17T00:29:41.368Z,19.17
2022-10-17T00:29:55.093Z,19.17
2022-10-17T00:30:05.833Z,19.17
2022-10-17T00:30:17.518Z,19.17
2022-10-17T00:30:28.274Z,19.17
2022-10-17T00:30:38.988Z,19.17
2022-10-17T00:30:51.429Z,19.17
2022-10-17T00:31:04.670Z,19.17
2022-10-17T00:31:16.920Z,19.15
2022-10-17T00:31:27.639Z,19.17
2022-10-17T00:31:38.369Z,19.15
2022-10-17T00:31:49.124Z,19.15
2022-10-17T00:31:59.863Z,19.17
2022-10-17T00:32:12.315Z,19.17
2022-10-17T00:32:23.030Z,19.17
2022-10-17T00:32:33.759Z,19.17
2022-10-17T00:32:44.491Z,19.17
2022-10-17T00:32:56.198Z,19.17
2022-10-17T00:33:08.650Z,19.15
2022-10-17T00:33:21.090Z,19.17
2022-10-17T00:33:31.829Z,19.17
2022-10-17T00:33:43.563Z,19.17
2022-10-17T00:33:56.519Z,19.15
2022-10-17T00:34:09.009Z,19.17
2022-10-17T00:34:20.721Z,19.14
2022-10-17T00:34:31.481Z,19.15
2022-10-17T00:34:42.214Z,19.15
2022-10-17T00:34:52.996Z,19.15
2022-10-17T00:35:03.719Z,19.14
2022-10-17T00:35:14.452Z,19.17
2022-10-17T00:35:27.174Z,19.15
2022-10-17T00:35:37.904Z,19.15
2022-10-17T00:35:51.100Z,19.15
2022-10-17T00:36:01.841Z,19.17
2022-10-17T00:36:14.290Z,19.17
2022-10-17T00:36:25.020Z,19.15
2022-10-17T00:36:35.754Z,19.14
2022-10-17T00:36:47.442Z,19.15
2022-10-17T00:37:00.665Z,19.14
2022-10-17T00:37:13.376Z,19.15
2022-10-17T00:37:24.130Z,19.14
2022-10-17T00:37:35.824Z,19.14
2022-10-17T00:37:46.572Z,19.15
2022-10-17T00:37:57.291Z,19.15
2022-10-17T00:38:08.041Z,19.15
2022-10-17T00:38:18.791Z,19.14
2022-10-17T00:38:29.513Z,19.14
2022-10-17T00:38:40.243Z,19.14
2022-10-17T00:38:51.961Z,19.14
2022-10-17T00:39:03.664Z,19.15
2022-10-17T00:39:16.101Z,19.14
2022-10-17T00:39:29.823Z,19.14
2022-10-17T00:39:40.579Z,19.13
2022-10-17T00:39:51.304Z,19.15
2022-10-17T00:40:03.010Z,19.14
2022-10-17T00:40:16.722Z,19.14
2022-10-17T00:40:27.451Z,19.13
2022-10-17T00:40:39.885Z,19.14
2022-10-17T00:40:50.647Z,19.13
2022-10-17T00:41:01.372Z,19.13
2022-10-17T00:41:13.868Z,19.14
2022-10-17T00:41:24.613Z,19.14
2022-10-17T00:41:36.798Z,19.14
2022-10-17T00:41:47.541Z,19.14
2022-10-17T00:41:58.283Z,19.14
2022-10-17T00:42:09.035Z,19.13
2022-10-17T00:42:19.747Z,19.13
2022-10-17T00:42:31.637Z,19.14
2022-10-17T00:42:42.374Z,19.13
2022-10-17T00:42:53.109Z,19.14
2022-10-17T00:43:03.834Z,19.13
2022-10-17T00:43:16.262Z,19.13
2022-10-17T00:43:28.713Z,19.13
2022-10-17T00:43:40.914Z,19.13
2022-10-17T00:43:51.644Z,19.13
2022-10-17T00:44:03.858Z,19.13
2022-10-17T00:44:16.064Z,19.13
2022-10-17T00:44:28.525Z,19.14
2022-10-17T00:44:41.235Z,19.14
2022-10-17T00:44:54.444Z,19.13
2022-10-17T00:45:05.205Z,19.13
2022-10-17T00:45:15.912Z,19.13
2022-10-17T00:45:26.634Z,19.13
2022-10-17T00:45:37.376Z,19.14
2022-10-17T00:45:48.115Z,19.13
2022-10-17T00:45:58.843Z,19.13
2022-10-17T00:46:11.046Z,19.11
2022-10-17T00:46:21.767Z,19.13
2022-10-17T00:46:32.531Z,19.11
2022-10-17T00:46:43.257Z,19.11
2022-10-17T00:46:53.986Z,19.11
2022-10-17T00:47:04.715Z,19.13
2022-10-17T00:47:18.147Z,19.13
2022-10-17T00:47:31.921Z,19.13
2022-10-17T00:47:45.142Z,19.13
2022-10-17T00:47:56.826Z,19.13
2022-10-17T00:48:09.286Z,19.13
2022-10-17T00:48:22.613Z,19.13
2022-10-17T00:48:34.067Z,19.11
2022-10-17T00:48:44.813Z,19.11
2022-10-17T00:48:55.550Z,19.11
2022-10-17T00:49:06.285Z,19.11
2022-10-17T00:49:18.699Z,19.11
2022-10-17T00:49:29.452Z,19.11
2022-10-17T00:49:42.664Z,19.11
2022-10-17T00:49:55.925Z,19.11
2022-10-17T00:50:06.711Z,19.11
2022-10-17T00:50:17.460Z,19.11
2022-10-17T00:50:30.656Z,19.11
2022-10-17T00:50:43.108Z,19.11
2022-10-17T00:50:53.834Z,19.11
2022-10-17T00:51:04.606Z,19.11
2022-10-17T00:51:15.336Z,19.11
2022-10-17T00:51:26.077Z,19.11
2022-10-17T00:51:36.845Z,19.11
2022-10-17T00:51:47.606Z,19.11
2022-10-17T00:52:00.090Z,19.10
2022-10-17T00:52:10.809Z,19.11
2022-10-17T00:52:21.539Z,19.10
2022-10-17T00:52:32.276Z,19.11
2022-10-17T00:52:43.021Z,19.11
2022-10-17T00:52:55.436Z,19.10
2022-10-17T00:53:06.166Z,19.10
2022-10-17T00:53:16.920Z,19.10
2022-10-17T00:53:27.658Z,19.11
2022-10-17T00:53:39.907Z,19.10
2022-10-17T00:53:52.880Z,19.10
2022-10-17T00:54:06.088Z,19.10
2022-10-17T00:54:17.847Z,19.10
2022-10-17T00:54:28.630Z,19.10
2022-10-17T00:54:39.411Z,19.10
2022-10-17T00:54:52.149Z,19.10
2022-10-17T00:55:03.847Z,19.08
2022-10-17T00:55:14.587Z,19.10
2022-10-17T00:55:25.319Z,19.11
2022-10-17T00:55:36.070Z,19.11
2022-10-17T00:55:46.798Z,19.10
2022-10-17T00:55:57.529Z,19.11
2022-10-17T00:56:09.263Z,19.08
2022-10-17T00:56:19.988Z,19.10
2022-10-17T00:56:32.422Z,19.11
2022-10-17T00:56:45.027Z,19.10
2022-10-17T00:56:57.209Z,19.08
2022-10-17T00:57:07.938Z,19.10
2022-10-17T00:57:18.703Z,19.10
2022-10-17T00:57:29.432Z,19.10
2022-10-17T00:57:44.661Z,19.08
2022-10-17T00:57:55.405Z,19.08
2022-10-17T00:58:06.171Z,19.10
2022-10-17T00:58:17.891Z,19.08
2022-10-17T00:58:30.340Z,19.10
2022-10-17T00:58:42.069Z,19.10
2022-10-17T00:58:52.862Z,19.08
2022-10-17T00:59:15.202Z,19.08
2022-10-17T00:59:25.930Z,19.10
2022-10-17T00:59:37.652Z,19.08
2022-10-17T00:59:48.430Z,19.08
2022-10-17T01:00:01.644Z,19.08
2022-10-17T01:00:14.880Z,19.06
2022-10-17T01:00:25.640Z,19.08
2022-10-17T01:00:37.370Z,19.08
2022-10-17T01:00:50.311Z,19.08
2022-10-17T01:01:02.824Z,19.08
2022-10-17T01:01:13.629Z,19.10
2022-10-17T01:01:24.442Z,19.08
2022-10-17T01:01:35.180Z,19.06
2022-10-17T01:01:45.922Z,19.08
2022-10-17T01:01:58.041Z,19.08
2022-10-17T01:02:08.826Z,19.06
2022-10-17T01:02:19.561Z,19.08
2022-10-17T01:02:30.417Z,19.08
2022-10-17T01:02:41.419Z,19.06
2022-10-17T01:02:52.141Z,19.08
2022-10-17T01:03:02.871Z,19.08
2022-10-17T01:03:13.607Z,19.08
2022-10-17T01:03:24.330Z,19.08
2022-10-17T01:03:35.051Z,19.08
2022-10-17T01:03:45.803Z,19.08
2022-10-17T01:03:56.536Z,19.08
2022-10-17T01:04:07.276Z,19.08
2022-10-17T01:04:18.024Z,19.08
2022-10-17T01:04:28.752Z,19.06
2022-10-17T01:04:39.472Z,19.08
2022-10-17T01:04:50.212Z,19.08
2022-10-17T01:05:00.948Z,19.06
2022-10-17T01:05:11.708Z,19.08
2022-10-17T01:05:22.433Z,19.06
2022-10-17T01:05:33.160Z,19.06
2022-10-17T01:05:43.882Z,19.06
2022-10-17T01:05:54.603Z,19.06
2022-10-17T01:06:05.343Z,19.06
2022-10-17T01:06:16.063Z,19.08
2022-10-17T01:06:26.784Z,19.06
2022-10-17T01:06:37.558Z,19.06
2022-10-17T01:06:48.324Z,19.06
2022-10-17T01:07:00.025Z,19.06
2022-10-17T01:07:11.833Z,19.05
2022-10-17T01:07:23.573Z,19.08
2022-10-17T01:07:37.136Z,19.06
2022-10-17T01:07:48.134Z,19.06
2022-10-17T01:08:00.825Z,19.06
2022-10-17T01:08:12.609Z,19.06
2022-10-17T01:08:24.804Z,19.06
2022-10-17T01:08:35.596Z,19.05
2022-10-17T01:08:47.582Z,19.06
2022-10-17T01:08:59.255Z,19.06
2022-10-17T01:09:11.686Z,19.06
2022-10-17T01:09:22.428Z,19.06
2022-10-17T01:09:33.184Z,19.06
2022-10-17T01:09:43.943Z,19.06
2022-10-17T01:09:54.666Z,19.06
2022-10-17T01:10:06.380Z,19.06
2022-10-17T01:10:18.117Z,19.06
2022-10-17T01:10:28.888Z,19.08
2022-10-17T01:10:42.074Z,19.05
2022-10-17T01:10:52.826Z,19.05
2022-10-17T01:11:06.036Z,19.05
2022-10-17T01:11:19.748Z,19.06
2022-10-17T01:11:30.510Z,19.05
2022-10-17T01:11:41.243Z,19.05
2022-10-17T01:11:52.008Z,19.05
2022-10-17T01:12:02.746Z,19.06
2022-10-17T01:12:13.533Z,19.05
2022-10-17T01:12:24.299Z,19.05
2022-10-17T01:12:35.042Z,19.06
2022-10-17T01:12:47.470Z,19.06
2022-10-17T01:12:58.197Z,19.05
2022-10-17T01:13:08.936Z,19.06
2022-10-17T01:13:19.668Z,19.05
2022-10-17T01:13:30.395Z,19.06
2022-10-17T01:13:41.135Z,19.05
2022-10-17T01:13:51.876Z,19.05
2022-10-17T01:14:02.634Z,19.05
2022-10-17T01:14:13.356Z,19.05
2022-10-17T01:14:24.086Z,19.06
2022-10-17T01:14:35.769Z,19.05
2022-10-17T01:14:46.521Z,19.02
2022-10-17T01:14:57.264Z,19.02
2022-10-17T01:15:07.997Z,19.05
2022-10-17T01:15:18.726Z,19.02
2022-10-17T01:15:29.459Z,19.05
2022-10-17T01:15:40.197Z,19.05
2022-10-17T01:15:50.935Z,19.05
2022-10-17T01:16:03.374Z,19.02
2022-10-17T01:16:14.096Z,19.05
2022-10-17T01:16:24.826Z,19.05
2022-10-17T01:16:35.559Z,19.05
2022-10-17T01:16:46.296Z,19.02
2022-10-17T01:16:57.020Z,19.05
2022-10-17T01:17:07.766Z,19.02
2022-10-17T01:17:18.495Z,19.02
2022-10-17T01:17:31.353Z,19.02
2022-10-17T01:17:44.290Z,19.05
2022-10-17T01:17:55.027Z,19.05
2022-10-17T01:18:05.761Z,19.05
2022-10-17T01:18:16.490Z,19.02
2022-10-17T01:18:28.707Z,19.02
2022-10-17T01:18:41.027Z,19.02
2022-10-17T01:18:53.750Z,19.02
2022-10-17T01:19:06.185Z,19.02
2022-10-17T01:19:18.457Z,19.02
2022-10-17T01:19:30.854Z,19.01
2022-10-17T01:19:41.588Z,19.01
2022-10-17T01:19:52.320Z,19.02
2022-10-17T01:20:03.069Z,19.02
2022-10-17T01:20:13.799Z,19.02
2022-10-17T01:20:26.000Z,19.02
2022-10-17T01:20:37.741Z,19.02
2022-10-17T01:20:48.500Z,19.01
2022-10-17T01:21:00.968Z,19.02
2022-10-17T01:21:11.729Z,19.02
2022-10-17T01:21:22.473Z,19.02
2022-10-17T01:21:33.221Z,19.01
2022-10-17T01:21:45.737Z,19.02
2022-10-17T01:21:56.488Z,19.01
2022-10-17T01:22:08.170Z,19.01
2022-10-17T01:22:18.901Z,19.02
2022-10-17T01:22:29.966Z,19.02
2022-10-17T01:22:42.568Z,19.02
2022-10-17T01:22:53.299Z,19.01
2022-10-17T01:23:04.268Z,19.02
2022-10-17T01:23:15.998Z,19.01
2022-10-17T01:23:26.720Z,19.02
2022-10-17T01:23:37.460Z,19.01
2022-10-17T01:23:48.190Z,19.02
2022-10-17T01:23:58.918Z,19.02
2022-10-17T01:24:09.649Z,19.01
2022-10-17T01:24:20.383Z,18.99
2022-10-17T01:24:31.111Z,19.01
2022-10-17T01:24:41.842Z,19.01
2022-10-17T01:24:52.572Z,19.02
2022-10-17T01:25:03.332Z,19.01
2022-10-17T01:25:16.040Z,19.01
2022-10-17T01:25:26.771Z,19.01
2022-10-17T01:25:37.509Z,18.99
2022-10-17T01:25:48.242Z,18.99
2022-10-17T01:25:58.990Z,19.01
2022-10-17T01:26:09.724Z,19.01
2022-10-17T01:26:20.450Z,19.01
2022-10-17T01:26:31.182Z,19.01
2022-10-17T01:26:41.931Z,19.01
2022-10-17T01:26:53.872Z,19.01
2022-10-17T01:27:04.611Z,19.01
2022-10-17T01:27:15.336Z,18.99
2022-10-17T01:27:26.064Z,19.02
2022-10-17T01:27:36.789Z,18.99
2022-10-17T01:27:52.011Z,19.01
2022-10-17T01:28:03.725Z,18.99
2022-10-17T01:28:14.463Z,18.99
2022-10-17T01:28:25.266Z,18.99
2022-10-17T01:28:37.124Z,18.99
2022-10-17T01:28:49.616Z,18.99
2022-10-17T01:29:01.866Z,19.01
2022-10-17T01:29:14.832Z,18.99
2022-10-17T01:29:27.053Z,18.99
2022-10-17T01:29:38.765Z,18.99
2022-10-17T01:29:49.526Z,18.99
2022-10-17T01:30:00.264Z,18.99
2022-10-17T01:30:11.001Z,18.99
2022-10-17T01:30:21.732Z,18.99
2022-10-17T01:30:33.453Z,18.99
2022-10-17T01:30:45.899Z,18.98
2022-10-17T01:30:56.646Z,18.98
2022-10-17T01:31:08.372Z,18.99
2022-10-17T01:31:20.876Z,18.99
2022-10-17T01:31:31.604Z,18.99
2022-10-17T01:31:44.043Z,18.99
2022-10-17T01:31:56.483Z,18.99
2022-10-17T01:32:08.715Z,18.99
2022-10-17T01:32:19.495Z,18.99
2022-10-17T01:32:31.944Z,18.98
2022-10-17T01:32:42.684Z,18.97
2022-10-17T01:32:53.405Z,18.98
2022-10-17T01:33:05.128Z,18.99
2022-10-17T01:33:15.854Z,18.98
2022-10-17T01:33:26.584Z,18.98
2022-10-17T01:33:37.303Z,18.99
2022-10-17T01:33:48.050Z,18.98
2022-10-17T01:33:58.783Z,18.98
2022-10-17T01:34:09.519Z,18.98
2022-10-17T01:34:20.235Z,18.98
2022-10-17T01:34:31.838Z,18.98
2022-10-17T01:34:42.642Z,18.98
2022-10-17T01:34:54.332Z,18.98
2022-10-17T01:35:05.067Z,18.98
2022-10-17T01:35:15.823Z,18.98
2022-10-17T01:35:26.553Z,18.97
2022-10-17T01:35:37.314Z,18.98
2022-10-17T01:35:48.034Z,18.97
2022-10-17T01:36:03.176Z,18.98
2022-10-17T01:36:15.346Z,18.97
2022-10-17T01:36:26.081Z,18.97
2022-10-17T01:36:36.805Z,18.98
2022-10-17T01:36:47.545Z,18.98
2022-10-17T01:36:58.293Z,18.97
2022-10-17T01:37:09.016Z,18.98
2022-10-17T01:37:19.755Z,18.98
2022-10-17T01:37:30.505Z,18.98
2022-10-17T01:37:41.283Z,18.97
2022-10-17T01:38:05.161Z,18.97
2022-10-17T01:38:17.365Z,18.98
2022-10-17T01:38:30.577Z,18.97
2022-10-17T01:38:41.315Z,18.97
2022-10-17T01:38:52.105Z,18.97
2022-10-17T01:39:04.306Z,18.95
2022-10-17T01:39:16.538Z,18.98
2022-10-17T01:39:30.132Z,18.97
2022-10-17T01:39:43.982Z,18.97
2022-10-17T01:39:56.237Z,18.98
2022-10-17T01:40:06.976Z,18.95
2022-10-17T01:40:17.704Z,18.97
2022-10-17T01:40:30.397Z,18.97
2022-10-17T01:40:41.138Z,18.97
2022-10-17T01:40:51.860Z,18.95
2022-10-17T01:41:04.811Z,18.95
2022-10-17T01:41:18.032Z,18.97
2022-10-17T01:41:29.739Z,18.97
2022-10-17T01:41:42.216Z,18.97
2022-10-17T01:41:52.970Z,18.95
2022-10-17T01:42:05.167Z,18.95
2022-10-17T01:42:15.915Z,18.95
2022-10-17T01:42:28.651Z,18.97
2022-10-17T01:42:39.569Z,18.95
2022-10-17T01:42:52.011Z,18.95
2022-10-17T01:43:02.749Z,18.95
2022-10-17T01:43:13.481Z,18.97
2022-10-17T01:43:26.411Z,18.97
2022-10-17T01:43:37.137Z,18.95
2022-10-17T01:43:47.913Z,18.95
2022-10-17T01:43:58.659Z,18.95
2022-10-17T01:44:09.410Z,18.97
2022-10-17T01:44:20.137Z,18.95
2022-10-17T01:44:30.881Z,18.94
2022-10-17T01:44:41.624Z,18.95
2022-10-17T01:44:53.366Z,18.95
2022-10-17T01:45:05.800Z,18.95
2022-10-17T01:45:18.103Z,18.94
2022-10-17T01:45:28.811Z,18.95
2022-10-17T01:45:41.234Z,18.97
2022-10-17T01:45:51.951Z,18.95
2022-10-17T01:46:02.694Z,18.95
2022-10-17T01:46:14.389Z,18.95
2022-10-17T01:46:26.609Z,18.94
2022-10-17T01:46:38.836Z,18.95
2022-10-17T01:46:49.588Z,18.95
2022-10-17T01:47:00.329Z,18.95
2022-10-17T01:47:11.073Z,18.95
2022-10-17T01:47:21.841Z,18.95
2022-10-17T01:47:34.315Z,18.95
2022-10-17T01:47:45.060Z,18.95
2022-10-17T01:47:55.791Z,18.95
2022-10-17T01:48:06.521Z,18.94
2022-10-17T01:48:17.300Z,18.94
2022-10-17T01:48:32.060Z,18.94
2022-10-17T01:48:45.299Z,18.94
2022-10-17T01:48:58.243Z,18.94
2022-10-17T01:49:08.980Z,18.94
2022-10-17T01:49:19.711Z,18.94
2022-10-17T01:49:30.453Z,18.94
2022-10-17T01:49:42.242Z,18.92
2022-10-17T01:49:55.470Z,18.94
2022-10-17T01:50:06.180Z,18.95
2022-10-17T01:50:16.949Z,18.94
2022-10-17T01:50:27.661Z,18.95
2022-10-17T01:50:38.424Z,18.94
2022-10-17T01:50:49.163Z,18.94
2022-10-17T01:50:59.930Z,18.94
2022-10-17T01:51:10.651Z,18.95
2022-10-17T01:51:23.113Z,18.94
2022-10-17T01:51:35.560Z,18.94
2022-10-17T01:51:46.290Z,18.94
2022-10-17T01:51:58.732Z,18.94
2022-10-17T01:52:09.482Z,18.92
2022-10-17T01:52:21.188Z,18.94
2022-10-17T01:52:31.932Z,18.94
2022-10-17T01:52:44.392Z,18.94
2022-10-17T01:52:56.843Z,18.94
2022-10-17T01:53:07.595Z,18.92
2022-10-17T01:53:18.321Z,18.94
2022-10-17T01:53:29.091Z,18.94
2022-10-17T01:53:40.813Z,18.94
2022-10-17T01:53:51.562Z,18.92
2022-10-17T01:54:03.264Z,18.92
2022-10-17T01:54:13.981Z,18.92
2022-10-17T01:54:24.713Z,18.92
2022-10-17T01:54:36.922Z,18.92
2022-10-17T01:54:47.662Z,18.92
2022-10-17T01:54:58.416Z,18.92
2022-10-17T01:55:09.150Z,18.92
2022-10-17T01:55:19.904Z,18.92
2022-10-17T01:55:32.326Z,18.92
2022-10-17T01:55:43.091Z,18.91
2022-10-17T01:55:53.909Z,18.92
2022-10-17T01:56:04.655Z,18.92
2022-10-17T01:56:16.335Z,18.92
2022-10-17T01:56:27.084Z,18.92
2022-10-17T01:56:37.844Z,18.91
2022-10-17T01:56:48.597Z,18.92
2022-10-17T01:56:59.334Z,18.92
2022-10-17T01:57:10.062Z,18.92
2022-10-17T01:57:22.503Z,18.92
2022-10-17T01:57:33.252Z,18.92
2022-10-17T01:57:43.983Z,18.91
2022-10-17T01:57:56.243Z,18.92
2022-10-17T01:58:06.973Z,18.92
2022-10-17T01:58:17.705Z,18.91
2022-10-17T01:58:28.434Z,18.91
2022-10-17T01:58:39.199Z,18.91
2022-10-17T01:58:52.981Z,18.92
2022-10-17T01:59:06.263Z,18.92
2022-10-17T01:59:18.000Z,18.91
2022-10-17T01:59:28.725Z,18.91
2022-10-17T01:59:39.498Z,18.91
2022-10-17T01:59:50.239Z,18.91
2022-10-17T02:00:02.497Z,18.91
2022-10-17T02:00:14.952Z,18.91
2022-10-17T02:00:27.179Z,18.91
2022-10-17T02:00:38.867Z,18.91
2022-10-17T02:00:49.617Z,18.91
2022-10-17T02:01:02.095Z,18.91
2022-10-17T02:01:12.996Z,18.91
2022-10-17T02:01:24.777Z,18.91
2022-10-17T02:01:35.548Z,18.91
2022-10-17T02:01:46.332Z,18.90
2022-10-17T02:01:57.096Z,18.91
2022-10-17T02:02:07.837Z,18.91
2022-10-17T02:02:20.296Z,18.91
2022-10-17T02:02:31.036Z,18.90
2022-10-17T02:02:43.495Z,18.90
2022-10-17T02:02:54.239Z,18.91
2022-10-17T02:03:07.886Z,18.90
2022-10-17T02:03:18.671Z,18.91
2022-10-17T02:03:29.411Z,18.90
2022-10-17T02:03:40.150Z,18.91
2022-10-17T02:03:51.858Z,18.90
2022-10-17T02:04:02.607Z,18.90
2022-10-17T02:04:13.358Z,18.91
2022-10-17T02:04:25.076Z,18.90
2022-10-17T02:04:35.805Z,18.90
2022-10-17T02:04:46.575Z,18.91
2022-10-17T02:04:57.392Z,18.91
2022-10-17T02:05:10.620Z,18.91
2022-10-17T02:05:21.346Z,18.90
2022-10-17T02:05:32.082Z,18.90
2022-10-17T02:05:44.288Z,18.91
2022-10-17T02:05:55.046Z,18.90
2022-10-17T02:06:06.025Z,18.90
2022-10-17T02:06:16.768Z,18.90
2022-10-17T02:06:27.510Z,18.90
2022-10-17T02:06:39.941Z,18.90
2022-10-17T02:06:50.678Z,18.87
2022-10-17T02:07:01.418Z,18.90
2022-10-17T02:07:15.120Z,18.91
2022-10-17T02:07:26.263Z,18.90
2022-10-17T02:07:37.241Z,18.90
2022-10-17T02:07:47.969Z,18.87
2022-10-17T02:07:58.705Z,18.90
2022-10-17T02:08:09.429Z,18.90
2022-10-17T02:08:21.907Z,18.90
2022-10-17T02:08:32.628Z,18.90
2022-10-17T02:08:43.350Z,18.87
2022-10-17T02:08:55.788Z,18.90
2022-10-17T02:09:09.559Z,18.87
2022-10-17T02:09:23.057Z,18.87
2022-10-17T02:09:33.792Z,18.90
2022-10-17T02:09:46.249Z,18.87
2022-10-17T02:09:58.698Z,18.87
2022-10-17T02:10:09.432Z,18.90
2022-10-17T02:10:22.159Z,18.90
2022-10-17T02:10:34.349Z,18.90
2022-10-17T02:10:45.092Z,18.86
2022-10-17T02:10:57.514Z,18.87
2022-10-17T02:11:08.256Z,18.90
2022-10-17T02:11:19.000Z,18.87
2022-10-17T02:11:29.731Z,18.87
2022-10-17T02:11:40.481Z,18.87
2022-10-17T02:11:51.212Z,18.87
2022-10-17T02:12:03.659Z,18.90
2022-10-17T02:12:15.391Z,18.90
2022-10-17T02:12:26.132Z,18.86
2022-10-17T02:12:39.081Z,18.87
2022-10-17T02:12:49.822Z,18.86
2022-10-17T02:13:01.511Z,18.90
2022-10-17T02:13:13.732Z,18.87
2022-10-17T02:13:26.874Z,18.87
2022-10-17T02:13:40.071Z,18.87
2022-10-17T02:13:50.800Z,18.87
2022-10-17T02:14:01.657Z,18.87
2022-10-17T02:14:14.154Z,18.87
2022-10-17T02:14:24.871Z,18.87
2022-10-17T02:14:35.646Z,18.87
2022-10-17T02:14:46.372Z,18.87
2022-10-17T02:14:57.114Z,18.87
2022-10-17T02:15:07.848Z,18.86
2022-10-17T02:15:18.582Z,18.87
2022-10-17T02:15:30.301Z,18.86
2022-10-17T02:15:41.026Z,18.86
2022-10-17T02:15:51.760Z,18.87
2022-10-17T02:16:03.453Z,18.87
2022-10-17T02:16:14.269Z,18.87
2022-10-17T02:16:25.054Z,18.86
2022-10-17T02:16:35.778Z,18.87
2022-10-17T02:16:46.523Z,18.87
2022-10-17T02:16:58.216Z,18.86
2022-10-17T02:17:09.004Z,18.86
2022-10-17T02:17:19.752Z,18.87
2022-10-17T02:17:32.231Z,18.87
2022-10-17T02:17:42.996Z,18.86
2022-10-17T02:17:53.730Z,18.86
2022-10-17T02:18:04.492Z,18.86
2022-10-17T02:18:15.235Z,18.86
2022-10-17T02:18:25.962Z,18.86
2022-10-17T02:18:39.175Z,18.86
2022-10-17T02:18:49.956Z,18.86
2022-10-17T02:19:00.678Z,18.86
2022-10-17T02:19:11.517Z,18.86
2022-10-17T02:19:24.780Z,18.84
2022-10-17T02:19:38.024Z,18.86
2022-10-17T02:19:51.247Z,18.86
2022-10-17T02:20:02.003Z,18.84
2022-10-17T02:20:12.725Z,18.84
2022-10-17T02:20:25.155Z,18.87
2022-10-17T02:20:37.646Z,18.84
2022-10-17T02:20:48.347Z,18.84
2022-10-17T02:21:01.089Z,18.84
2022-10-17T02:21:12.824Z,18.84
2022-10-17T02:21:26.107Z,18.84
2022-10-17T02:21:36.815Z,18.84
2022-10-17T02:21:47.547Z,18.84
2022-10-17T02:21:58.319Z,18.84
2022-10-17T02:22:09.046Z,18.84
2022-10-17T02:22:20.798Z,18.84
2022-10-17T02:22:33.025Z,18.84
2022-10-17T02:22:43.756Z,18.84
2022-10-17T02:22:57.500Z,18.84
2022-10-17T02:23:09.988Z,18.84
2022-10-17T02:23:22.167Z,18.86
2022-10-17T02:23:34.402Z,18.84
2022-10-17T02:23:45.147Z,18.84
2022-10-17T02:23:57.628Z,18.84
2022-10-17T02:24:08.336Z,18.84
2022-10-17T02:24:19.097Z,18.86
2022-10-17T02:24:29.827Z,18.83
2022-10-17T02:24:40.588Z,18.83
2022-10-17T02:24:51.336Z,18.84
2022-10-17T02:25:02.077Z,18.84
2022-10-17T02:25:12.808Z,18.84
2022-10-17T02:25:23.569Z,18.86
2022-10-17T02:25:34.300Z,18.84
2022-10-17T02:25:45.038Z,18.84
2022-10-17T02:25:55.768Z,18.83
2022-10-17T02:26:06.497Z,18.84
2022-10-17T02:26:18.927Z,18.84
2022-10-17T02:26:31.368Z,18.83
2022-10-17T02:26:44.111Z,18.84
2022-10-17T02:26:54.847Z,18.83
2022-10-17T02:27:05.606Z,18.83